createdAt,value
2023-01-10T00:01:08.288Z,98700.91
2023-01-10T00:03:35.880Z,98704.19
2023-01-10T00:06:02.943Z,98699.44
2023-01-10T00:08:30.248Z,98704.66
2023-01-10T00:11:17.445Z,98714.63
2023-01-10T00:13:44.882Z,98702.13
2023-01-10T00:16:14.275Z,98707.41
2023-01-10T00:18:41.680Z,98702.72
2023-01-10T00:21:09.772Z,98709.69
2023-01-10T00:23:37.173Z,98721.44
2023-01-10T00:26:04.394Z,98709.97
2023-01-10T00:28:34.919Z,98714.75
2023-01-10T00:31:06.640Z,98712.53
2023-01-10T00:33:37.104Z,98720.03
2023-01-10T00:36:08.354Z,98716.53
2023-01-10T00:38:38.488Z,98728.06
2023-01-10T00:41:28.322Z,98732.28
2023-01-10T00:43:58.594Z,98726.28
2023-01-10T00:46:27.026Z,98740.06
2023-01-10T00:48:57.332Z,98737.50
2023-01-10T00:51:24.624Z,98734.22
2023-01-10T00:53:52.055Z,98740.50
2023-01-10T00:56:19.189Z,98736.69
2023-01-10T00:58:46.575Z,98758.66
2023-01-10T01:01:16.291Z,98763.19
2023-01-10T01:03:46.130Z,98771.44
2023-01-10T01:06:15.411Z,98770.19
2023-01-10T01:08:42.792Z,98776.16
2023-01-10T01:11:09.912Z,98786.13
2023-01-10T01:13:37.291Z,98789.84
2023-01-10T01:16:04.672Z,98795.13
2023-01-10T01:18:32.383Z,98789.63
2023-01-10T01:21:03.760Z,98809.13
2023-01-10T01:23:33.507Z,98806.13
2023-01-10T01:26:01.306Z,98815.19
2023-01-10T01:28:28.681Z,98814.38
2023-01-10T01:30:55.745Z,98810.13
2023-01-10T01:33:24.098Z,98814.09
2023-01-10T01:35:51.276Z,98817.16
2023-01-10T01:38:18.836Z,98804.44
2023-01-10T01:40:48.742Z,98820.66
2023-01-10T01:43:26.185Z,98818.09
2023-01-10T01:45:54.310Z,98820.41
2023-01-10T01:48:38.910Z,98824.69
2023-01-10T01:51:25.460Z,98826.72
2023-01-10T01:53:56.959Z,98830.69
2023-01-10T01:56:34.812Z,98834.91
2023-01-10T01:59:09.788Z,98841.91
2023-01-10T02:01:38.999Z,98838.69
2023-01-10T02:04:22.999Z,98844.19
2023-01-10T02:06:53.093Z,98844.19
2023-01-10T02:09:45.483Z,98840.22
2023-01-10T02:12:14.085Z,98848.94
2023-01-10T02:14:45.007Z,98845.00
2023-01-10T02:17:12.548Z,98846.72
2023-01-10T02:19:39.909Z,98856.25
2023-01-10T02:22:35.370Z,98843.06
2023-01-10T02:25:21.447Z,98852.78
2023-01-10T02:28:07.461Z,98856.53
2023-01-10T02:30:37.699Z,98858.06
2023-01-10T02:33:16.574Z,98864.31
2023-01-10T02:36:04.243Z,98865.59
2023-01-10T02:38:37.464Z,98874.38
2023-01-10T02:41:31.573Z,98873.09
2023-01-10T02:44:05.767Z,98877.13
2023-01-10T02:46:35.051Z,98872.56
2023-01-10T02:49:02.093Z,98881.16
2023-01-10T02:57:10.628Z,98889.41
2023-01-10T03:00:04.418Z,98902.91
2023-01-10T03:02:58.279Z,98896.91
2023-01-10T03:05:37.719Z,98906.91
2023-01-10T03:08:11.809Z,98917.16
2023-01-10T03:11:01.410Z,98913.69
2023-01-10T03:13:40.090Z,98908.41
2023-01-10T03:16:10.694Z,98920.69
2023-01-10T03:18:56.765Z,98909.94
2023-01-10T03:21:27.944Z,98914.25
2023-01-10T03:24:01.343Z,98913.53
2023-01-10T03:26:45.767Z,98917.84
2023-01-10T03:29:16.752Z,98917.88
2023-01-10T03:31:55.479Z,98924.91
2023-01-10T03:34:23.993Z,98929.47
2023-01-10T03:37:13.199Z,98929.50
2023-01-10T03:40:00.296Z,98936.00
2023-01-10T03:43:02.503Z,98937.50
2023-01-10T03:45:49.591Z,98947.03
2023-01-10T03:48:20.132Z,98945.50
2023-01-10T03:50:50.511Z,98953.75
2023-01-10T03:53:17.829Z,98963.75
2023-01-10T03:55:45.815Z,98963.00
2023-01-10T03:58:17.455Z,98962.31
2023-01-10T04:00:44.865Z,98968.81
2023-01-10T04:03:11.969Z,98976.84
2023-01-10T04:05:42.954Z,98982.09
2023-01-10T04:08:09.942Z,98982.06
2023-01-10T04:10:38.117Z,98986.31
2023-01-10T04:13:05.940Z,98986.31
2023-01-10T04:15:35.752Z,98998.31
2023-01-10T04:18:02.898Z,98996.81
2023-01-10T04:20:30.400Z,99002.31
2023-01-10T04:22:57.444Z,99001.09
2023-01-10T04:25:27.548Z,99005.13
2023-01-10T04:27:54.646Z,99005.38
2023-01-10T04:30:21.983Z,98999.88
2023-01-10T04:32:49.036Z,99016.38
2023-01-10T04:35:16.668Z,99018.38
2023-01-10T04:37:44.100Z,99023.88
2023-01-10T04:40:11.897Z,99023.38
2023-01-10T04:42:39.048Z,99028.63
2023-01-10T04:45:07.000Z,99030.13
2023-01-10T04:47:36.541Z,99044.38
2023-01-10T04:50:04.026Z,99044.13
2023-01-10T04:52:33.599Z,99044.66
2023-01-10T04:55:01.026Z,99048.88
2023-01-10T04:57:28.116Z,99042.88
2023-01-10T04:59:58.241Z,99051.63
2023-01-10T05:02:25.312Z,99058.84
2023-01-10T05:04:52.682Z,99064.09
2023-01-10T05:07:19.679Z,99070.09
2023-01-10T05:09:47.041Z,99079.09
2023-01-10T05:12:16.384Z,99080.84
2023-01-10T05:14:43.726Z,99085.31
2023-01-10T05:17:10.821Z,99092.59
2023-01-10T05:19:38.325Z,99097.31
2023-01-10T05:22:05.717Z,99098.59
2023-01-10T05:24:33.195Z,99093.09
2023-01-10T05:27:00.244Z,99091.81
2023-01-10T05:29:30.811Z,99107.81
2023-01-10T05:31:57.857Z,99103.81
2023-01-10T05:34:25.215Z,99106.06
2023-01-10T05:36:52.443Z,99113.03
2023-01-10T05:39:19.866Z,99113.81
2023-01-10T05:41:47.312Z,99109.06
2023-01-10T05:44:14.984Z,99112.53
2023-01-10T05:46:42.011Z,99114.78
2023-01-10T05:49:09.498Z,99124.28
2023-01-10T05:51:36.606Z,99137.50
2023-01-10T05:54:06.260Z,99132.53
2023-01-10T05:56:36.141Z,99126.50
2023-01-10T05:59:09.640Z,99140.25
2023-01-10T06:01:41.231Z,99147.50
2023-01-10T06:04:08.586Z,99149.78
2023-01-10T06:06:35.715Z,99137.78
2023-01-10T06:09:03.375Z,99153.00
2023-01-10T06:11:36.562Z,99154.75
2023-01-10T06:14:03.894Z,99168.72
2023-01-10T06:16:30.981Z,99169.75
2023-01-10T06:18:58.338Z,99173.50
2023-01-10T06:21:25.433Z,99176.75
2023-01-10T06:23:52.818Z,99191.72
2023-01-10T06:26:20.068Z,99199.97
2023-01-10T06:28:47.419Z,99194.47
2023-01-10T06:31:15.207Z,99200.50
2023-01-10T06:33:44.123Z,99211.00
2023-01-10T06:36:11.370Z,99212.00
2023-01-10T06:38:41.362Z,99218.25
2023-01-10T06:41:16.777Z,99217.75
2023-01-10T06:43:46.820Z,99234.25
2023-01-10T06:46:16.678Z,99233.75
2023-01-10T06:48:45.745Z,99243.75
2023-01-10T06:51:19.824Z,99242.25
2023-01-10T06:53:47.998Z,99250.75
2023-01-10T06:56:15.105Z,99257.75
2023-01-10T06:58:42.671Z,99259.25
2023-01-10T07:01:19.167Z,99262.75
2023-01-10T07:03:47.516Z,99266.22
2023-01-10T07:06:17.392Z,99277.22
2023-01-10T07:08:47.821Z,99290.75
2023-01-10T07:11:18.408Z,99293.50
2023-01-10T07:13:45.967Z,99292.47
2023-01-10T07:16:15.862Z,99301.72
2023-01-10T07:18:43.852Z,99306.75
2023-01-10T07:21:12.192Z,99302.72
2023-01-10T07:23:41.215Z,99308.72
2023-01-10T07:26:11.312Z,99309.97
2023-01-10T07:28:39.098Z,99324.47
2023-01-10T07:31:06.388Z,99320.72
2023-01-10T07:33:33.756Z,99321.97
2023-01-10T07:36:01.910Z,99320.50
2023-01-10T07:38:29.870Z,99338.75
2023-01-10T07:40:57.360Z,99333.25
2023-01-10T07:43:24.891Z,99341.00
2023-01-10T07:45:52.115Z,99340.25
2023-01-10T07:48:19.601Z,99344.72
2023-01-10T07:50:46.731Z,99349.72
2023-01-10T07:53:14.204Z,99356.25
2023-01-10T07:55:41.505Z,99368.25
2023-01-10T07:58:09.072Z,99350.47
2023-01-10T08:00:36.317Z,99370.25
2023-01-10T08:03:04.509Z,99367.75
2023-01-10T08:05:31.714Z,99374.75
2023-01-10T08:08:05.931Z,99376.97
2023-01-10T08:10:34.761Z,99399.97
2023-01-10T08:13:17.172Z,99396.00
2023-01-10T08:15:47.363Z,99393.50
2023-01-10T08:18:17.378Z,99411.00
2023-01-10T08:20:44.427Z,99426.03
2023-01-10T08:23:11.732Z,99427.00
2023-01-10T08:25:41.464Z,99434.75
2023-01-10T08:28:09.120Z,99430.75
2023-01-10T08:30:39.934Z,99438.28
2023-01-10T08:33:08.312Z,99442.28
2023-01-10T08:35:45.438Z,99458.56
2023-01-10T08:38:12.898Z,99451.53
2023-01-10T08:40:40.307Z,99457.28
2023-01-10T08:43:11.728Z,99466.28
2023-01-10T08:45:39.758Z,99470.81
2023-01-10T08:48:10.623Z,99479.06
2023-01-10T08:50:40.392Z,99481.06
2023-01-10T08:53:07.915Z,99489.31
2023-01-10T08:55:35.625Z,99484.56
2023-01-10T08:58:03.176Z,99488.56
2023-01-10T09:00:31.002Z,99514.63
2023-01-10T09:02:58.556Z,99506.81
2023-01-10T09:05:27.737Z,99506.56
2023-01-10T09:08:01.793Z,99515.34
2023-01-10T09:10:30.272Z,99529.13
2023-01-10T09:13:01.454Z,99531.88
2023-01-10T09:15:38.513Z,99534.38
2023-01-10T09:18:10.177Z,99539.13
2023-01-10T09:20:40.925Z,99541.41
2023-01-10T09:23:18.057Z,99541.63
2023-01-10T09:25:53.544Z,99541.88
2023-01-10T09:28:21.611Z,99548.16
2023-01-10T09:30:48.869Z,99559.41
2023-01-10T09:33:16.732Z,99559.91
2023-01-10T09:35:46.310Z,99565.41
2023-01-10T09:38:17.027Z,99561.91
2023-01-10T09:41:16.767Z,99573.66
2023-01-10T09:43:51.769Z,99566.66
2023-01-10T09:46:35.981Z,99581.69
2023-01-10T09:49:20.683Z,99585.44
2023-01-10T09:51:50.984Z,99589.19
2023-01-10T09:54:20.737Z,99567.91
2023-01-10T09:56:48.448Z,99582.41
2023-01-10T09:59:19.897Z,99580.16
2023-01-10T10:01:50.535Z,99578.41
2023-01-10T10:04:37.468Z,99574.88
2023-01-10T10:07:11.693Z,99582.66
2023-01-10T10:09:39.229Z,99594.44
2023-01-10T10:12:32.980Z,99606.19
2023-01-10T10:15:18.422Z,99604.94
2023-01-10T10:17:51.387Z,99602.69
2023-01-10T10:20:30.959Z,99598.69
2023-01-10T10:23:19.082Z,99606.94
2023-01-10T10:26:04.526Z,99614.44
2023-01-10T10:28:56.483Z,99611.94
2023-01-10T10:31:43.081Z,99608.94
2023-01-10T10:34:27.804Z,99606.94
2023-01-10T10:37:01.106Z,99620.47
2023-01-10T10:39:46.658Z,99609.66
2023-01-10T10:42:18.278Z,99611.16
2023-01-10T10:45:05.128Z,99614.44
2023-01-10T10:47:36.931Z,99601.13
2023-01-10T10:50:24.464Z,99621.41
2023-01-10T10:52:54.400Z,99616.16
2023-01-10T10:55:29.895Z,99615.16
2023-01-10T10:58:00.552Z,99620.91
2023-01-10T11:00:29.864Z,99620.13
2023-01-10T11:03:16.319Z,99623.38
2023-01-10T11:05:46.592Z,99618.84
2023-01-10T11:08:17.531Z,99621.84
2023-01-10T11:10:50.326Z,99620.81
2023-01-10T11:13:40.132Z,99619.34
2023-01-10T11:16:07.804Z,99620.03
2023-01-10T11:18:38.498Z,99630.34
2023-01-10T11:21:11.950Z,99641.84
2023-01-10T11:23:54.263Z,99635.81
2023-01-10T11:26:28.572Z,99653.13
2023-01-10T11:29:22.066Z,99643.84
2023-01-10T11:31:50.885Z,99654.84
2023-01-10T11:34:31.677Z,99664.38
2023-01-10T11:37:03.125Z,99653.63
2023-01-10T11:39:32.659Z,99649.06
2023-01-10T11:42:25.321Z,99649.84
2023-01-10T11:44:52.700Z,99649.81
2023-01-10T11:47:21.113Z,99657.63
2023-01-10T11:49:50.548Z,99649.81
2023-01-10T11:52:27.580Z,99657.22
2023-01-10T11:55:00.311Z,99655.72
2023-01-10T11:57:32.785Z,99647.66
2023-01-10T12:00:12.334Z,99664.47
2023-01-10T12:02:46.942Z,99663.78
2023-01-10T12:05:24.418Z,99677.59
2023-01-10T12:08:06.484Z,99666.06
2023-01-10T12:10:35.022Z,99679.88
2023-01-10T12:13:15.482Z,99681.66
2023-01-10T12:15:43.388Z,99677.09
2023-01-10T12:18:13.060Z,99685.63
2023-01-10T12:21:00.827Z,99692.88
2023-01-10T12:23:30.153Z,99689.16
2023-01-10T12:26:11.147Z,99684.66
2023-01-10T12:28:52.464Z,99695.38
2023-01-10T12:31:22.254Z,99705.88
2023-01-10T12:33:55.946Z,99716.38
2023-01-10T12:36:46.422Z,99703.63
2023-01-10T12:39:19.688Z,99715.47
2023-01-10T12:42:24.106Z,99716.50
2023-01-10T12:45:01.902Z,99718.19
2023-01-10T12:48:08.769Z,99723.00
2023-01-10T12:50:41.882Z,99730.06
2023-01-10T12:53:09.194Z,99724.25
2023-01-10T12:55:42.943Z,99728.25
2023-01-10T12:58:29.203Z,99723.28
2023-01-10T13:01:00.767Z,99735.09
2023-01-10T13:03:33.412Z,99732.38
2023-01-10T13:06:01.830Z,99735.16
2023-01-10T13:08:35.123Z,99742.97
2023-01-10T13:11:03.485Z,99739.44
2023-01-10T13:13:36.606Z,99753.00
2023-01-10T13:16:06.946Z,99748.22
2023-01-10T13:18:35.055Z,99753.25
2023-01-10T13:21:05.744Z,99755.00
2023-01-10T13:23:37.094Z,99762.78
2023-01-10T13:26:09.168Z,99759.81
2023-01-10T13:29:00.070Z,99772.09
2023-01-10T13:31:31.836Z,99780.63
2023-01-10T13:34:00.622Z,99772.34
2023-01-10T13:36:35.115Z,99782.63
2023-01-10T13:39:08.888Z,99782.41
2023-01-10T13:42:16.602Z,99781.38
2023-01-10T13:45:04.861Z,99785.91
2023-01-10T13:47:41.146Z,99792.69
2023-01-10T13:50:23.410Z,99798.97
2023-01-10T13:53:04.085Z,99802.22
2023-01-10T13:55:34.384Z,99808.25
2023-01-10T13:58:01.574Z,99806.50
2023-01-10T14:00:53.776Z,99818.81
2023-01-10T14:03:53.517Z,99822.53
2023-01-10T14:06:30.288Z,99815.78
2023-01-10T14:08:59.795Z,99814.00
2023-01-10T14:11:45.800Z,99826.56
2023-01-10T14:14:34.916Z,99839.59
2023-01-10T14:17:26.153Z,99836.59
2023-01-10T14:20:06.111Z,99849.91
2023-01-10T14:22:36.645Z,99840.09
2023-01-10T14:25:18.833Z,99848.16
2023-01-10T14:27:50.802Z,99851.16
2023-01-10T14:30:26.436Z,99840.38
2023-01-10T14:32:57.997Z,99852.91
2023-01-10T14:35:35.062Z,99845.88
2023-01-10T14:38:04.232Z,99845.88
2023-01-10T14:40:48.052Z,99841.38
2023-01-10T14:43:17.868Z,99846.09
2023-01-10T14:46:03.808Z,99854.63
2023-01-10T14:48:40.548Z,99856.88
2023-01-10T14:51:17.416Z,99859.38
2023-01-10T14:53:45.034Z,99871.41
2023-01-10T14:56:21.245Z,99875.19
2023-01-10T14:58:48.636Z,99882.19
2023-01-10T15:01:24.998Z,99884.69
2023-01-10T15:03:53.763Z,99886.69
2023-01-10T15:06:21.349Z,99897.72
2023-01-10T15:09:00.045Z,99907.22
2023-01-10T15:11:30.494Z,99913.47
2023-01-10T15:14:04.094Z,99914.97
2023-01-10T15:16:32.459Z,99911.44
2023-01-10T15:19:00.278Z,99913.19
2023-01-10T15:21:27.729Z,99918.69
2023-01-10T15:23:55.265Z,99911.91
2023-01-10T15:26:25.289Z,99918.41
2023-01-10T15:29:14.964Z,99925.19
2023-01-10T15:31:42.878Z,99940.19
2023-01-10T15:34:23.444Z,99942.44
2023-01-10T15:37:01.943Z,99952.97
2023-01-10T15:39:40.576Z,99957.97
2023-01-10T15:42:11.515Z,99958.97
2023-01-10T15:44:40.517Z,99964.22
2023-01-10T15:47:37.093Z,99965.91
2023-01-10T15:50:27.165Z,99975.59
2023-01-10T15:53:03.692Z,99975.09
2023-01-10T15:55:54.253Z,99983.84
2023-01-10T15:58:29.985Z,99992.59
2023-01-10T16:01:00.283Z,99987.88
2023-01-10T16:03:46.115Z,99991.84
2023-01-10T16:06:22.139Z,99992.13
2023-01-10T16:08:51.273Z,99997.41
2023-01-10T16:12:18.819Z,99996.66
2023-01-10T16:14:45.984Z,99994.88
2023-01-10T16:17:14.038Z,100009.91
2023-01-10T16:19:44.038Z,100006.34
2023-01-10T16:22:18.471Z,100011.09
2023-01-10T16:24:47.565Z,100011.09
2023-01-10T16:27:14.961Z,100008.56
2023-01-10T16:29:42.632Z,100021.09
2023-01-10T16:32:14.162Z,100028.09
2023-01-10T16:34:41.204Z,100016.34
2023-01-10T16:37:09.016Z,100022.13
2023-01-10T16:39:37.243Z,100026.88
2023-01-10T16:42:23.189Z,100025.84
2023-01-10T16:44:50.987Z,100033.09
2023-01-10T16:47:18.447Z,100038.59
2023-01-10T16:49:47.192Z,100042.84
2023-01-10T16:52:14.907Z,100045.34
2023-01-10T16:54:42.136Z,100042.34
2023-01-10T16:57:13.073Z,100044.59
2023-01-10T16:59:40.175Z,100051.34
2023-01-10T17:02:18.011Z,100050.59
2023-01-10T17:04:45.278Z,100050.81
2023-01-10T17:07:13.050Z,100049.28
2023-01-10T17:09:40.257Z,100054.03
2023-01-10T17:12:14.070Z,100051.03
2023-01-10T17:14:41.121Z,100046.50
2023-01-10T17:17:12.268Z,100054.69
2023-01-10T17:19:42.349Z,100057.19
2023-01-10T17:22:09.971Z,100060.41
2023-01-10T17:24:37.109Z,100061.41
2023-01-10T17:27:04.835Z,100055.91
2023-01-10T17:29:32.821Z,100063.09
2023-01-10T17:32:02.976Z,100066.13
2023-01-10T17:34:37.150Z,100071.63
2023-01-10T17:37:05.838Z,100086.81
2023-01-10T17:39:32.996Z,100081.53
2023-01-10T17:42:00.962Z,100081.31
2023-01-10T17:44:27.979Z,100078.34
2023-01-10T17:46:57.087Z,100083.84
2023-01-10T17:49:24.945Z,100095.97
2023-01-10T17:51:53.689Z,100099.50
2023-01-10T17:54:21.509Z,100106.78
2023-01-10T17:56:48.911Z,100110.03
2023-01-10T17:59:16.118Z,100105.56
2023-01-10T18:01:43.707Z,100110.09
2023-01-10T18:04:11.455Z,100108.38
2023-01-10T18:06:39.015Z,100110.31
2023-01-10T18:09:08.542Z,100111.84
2023-01-10T18:11:36.051Z,100109.81
2023-01-10T18:14:24.023Z,100118.84
2023-01-10T18:16:51.739Z,100110.84
2023-01-10T18:19:19.107Z,100113.81
2023-01-10T18:21:48.412Z,100111.56
2023-01-10T18:24:15.744Z,100115.47
2023-01-10T18:26:46.418Z,100123.28
2023-01-10T18:29:13.572Z,100131.53
2023-01-10T18:31:42.113Z,100136.78
2023-01-10T18:34:10.182Z,100140.00
2023-01-10T18:36:40.259Z,100139.59
2023-01-10T18:39:07.763Z,100137.50
2023-01-10T18:41:35.535Z,100125.75
2023-01-10T18:44:02.911Z,100137.72
2023-01-10T18:46:32.359Z,100140.00
2023-01-10T18:49:02.116Z,100144.00
2023-01-10T18:51:30.215Z,100137.72
2023-01-10T18:53:57.716Z,100140.97
2023-01-10T18:56:25.455Z,100136.44
2023-01-10T18:58:52.908Z,100137.41
2023-01-10T19:01:23.247Z,100143.41
2023-01-10T19:03:54.376Z,100140.09
2023-01-10T19:06:24.031Z,100141.81
2023-01-10T19:08:52.383Z,100144.03
2023-01-10T19:11:20.578Z,100152.50
2023-01-10T19:13:54.139Z,100159.50
2023-01-10T19:16:28.399Z,100157.72
2023-01-10T19:18:58.725Z,100158.47
2023-01-10T19:21:28.536Z,100169.75
2023-01-10T19:23:58.124Z,100156.66
2023-01-10T19:26:26.877Z,100167.16
2023-01-10T19:28:57.923Z,100161.44
2023-01-10T19:31:30.529Z,100170.16
2023-01-10T19:34:01.954Z,100171.19
2023-01-10T19:36:34.782Z,100175.66
2023-01-10T19:39:05.509Z,100188.19
2023-01-10T19:41:35.437Z,100185.16
2023-01-10T19:44:05.814Z,100182.41
2023-01-10T19:46:37.272Z,100195.13
2023-01-10T19:49:08.341Z,100195.41
2023-01-10T19:51:41.036Z,100198.34
2023-01-10T19:54:09.481Z,100193.41
2023-01-10T19:56:37.199Z,100196.09
2023-01-10T19:59:04.613Z,100197.53
2023-01-10T20:01:34.769Z,100200.56
2023-01-10T20:04:05.892Z,100196.22
2023-01-10T20:06:38.171Z,100202.69
2023-01-10T20:09:05.881Z,100197.94
2023-01-10T20:11:37.999Z,100199.16
2023-01-10T20:14:21.138Z,100193.41
2023-01-10T20:16:52.752Z,100186.75
2023-01-10T20:19:21.522Z,100198.72
2023-01-10T20:21:50.811Z,100202.91
2023-01-10T20:24:21.147Z,100198.34
2023-01-10T20:26:50.206Z,100182.03
2023-01-10T20:29:18.983Z,100206.72
2023-01-10T20:31:55.954Z,100196.69
2023-01-10T20:34:26.190Z,100190.69
2023-01-10T20:36:56.735Z,100193.25
2023-01-10T20:39:32.377Z,100195.47
2023-01-10T20:41:59.882Z,100191.94
2023-01-10T20:44:28.861Z,100195.16
2023-01-10T20:47:01.164Z,100205.69
2023-01-10T20:49:29.505Z,100203.41
2023-01-10T20:51:58.192Z,100201.59
2023-01-10T20:54:27.762Z,100210.63
2023-01-10T20:56:55.466Z,100214.13
2023-01-10T20:59:25.708Z,100211.38
2023-01-10T21:01:54.878Z,100232.13
2023-01-10T21:04:22.052Z,100224.56
2023-01-10T21:06:49.558Z,100225.31
2023-01-10T21:09:17.089Z,100214.91
2023-01-10T21:11:59.970Z,100215.34
2023-01-10T21:14:31.906Z,100217.56
2023-01-10T21:16:59.629Z,100212.25
2023-01-10T21:19:27.155Z,100212.78
2023-01-10T21:21:54.604Z,100209.31
2023-01-10T21:24:25.030Z,100209.78
2023-01-10T21:26:52.505Z,100211.28
2023-01-10T21:29:19.715Z,100200.28
2023-01-10T21:31:47.075Z,100199.06
2023-01-10T21:34:14.158Z,100196.03
2023-01-10T21:36:42.346Z,100188.00
2023-01-10T21:39:09.358Z,100196.97
2023-01-10T21:41:55.344Z,100193.97
2023-01-10T21:44:22.334Z,100191.75
2023-01-10T21:46:51.352Z,100187.78
2023-01-10T21:49:18.794Z,100194.22
2023-01-10T21:51:46.742Z,100196.50
2023-01-10T21:54:14.207Z,100198.22
2023-01-10T21:56:41.605Z,100207.03
2023-01-10T21:59:08.832Z,100204.00
2023-01-10T22:01:36.317Z,100202.66
2023-01-10T22:04:03.671Z,100210.47
2023-01-10T22:06:31.178Z,100204.69
2023-01-10T22:08:58.290Z,100201.16
2023-01-10T22:11:25.748Z,100200.41
2023-01-10T22:13:54.865Z,100192.44
2023-01-10T22:16:22.466Z,100191.41
2023-01-10T22:18:50.363Z,100202.59
2023-01-10T22:21:19.752Z,100195.88
2023-01-10T22:23:47.096Z,100193.13
2023-01-10T22:26:16.077Z,100190.38
2023-01-10T22:28:43.328Z,100191.81
2023-01-10T22:31:10.963Z,100188.28
2023-01-10T22:33:39.186Z,100190.19
2023-01-10T22:36:08.582Z,100201.84
2023-01-10T22:38:35.704Z,100204.59
2023-01-10T22:41:12.305Z,100193.31
2023-01-10T22:43:41.119Z,100201.84
2023-01-10T22:46:09.843Z,100202.13
2023-01-10T22:48:38.171Z,100205.16
2023-01-10T22:51:05.912Z,100203.63
2023-01-10T22:53:35.902Z,100212.16
2023-01-10T22:56:05.851Z,100207.63
2023-01-10T22:58:37.803Z,100210.84
2023-01-10T23:03:54.532Z,100201.84
2023-01-10T23:06:22.283Z,100205.34
2023-01-10T23:08:51.913Z,100208.59
2023-01-10T23:11:21.377Z,100206.31
2023-01-10T23:13:49.343Z,100204.31
2023-01-10T23:16:28.739Z,100203.75
2023-01-10T23:19:00.187Z,100202.22
2023-01-10T23:21:29.338Z,100210.66
2023-01-10T23:23:59.665Z,100211.41
2023-01-10T23:26:26.965Z,100210.38
2023-01-10T23:28:53.982Z,100211.13
2023-01-10T23:31:23.598Z,100209.81
2023-01-10T23:33:51.292Z,100216.06
2023-01-10T23:36:19.525Z,100207.25
2023-01-10T23:38:47.260Z,100206.78
2023-01-10T23:41:14.735Z,100207.16
2023-01-10T23:43:42.730Z,100195.88
2023-01-10T23:46:10.247Z,100198.34
2023-01-10T23:48:40.420Z,100190.75
2023-01-10T23:51:08.659Z,100185.34
2023-01-10T23:53:35.735Z,100191.31
2023-01-10T23:56:12.861Z,100188.00
2023-01-10T23:58:40.574Z,100199.34
